Time;durP1;ratioP1;P1;durP2;ratioP2;P2;SDS_P1;SDS_P2;PMS_P1;PMS_P2;Temp;Humidity;BMP_temperature;BMP_pressure;BME280_temperature;BME280_humidity;BME280_pressure;Samples;Min_cycle;Max_cycle;Signal;HPM_P1;HPM_P2
2023/12/04 00:03:07;;;;;;;0.90;0.90;;;;;;;0.72;100.00;101142.16;10296944;28;20038;-71
2023/12/04 00:08:08;;;;;;;0.88;0.88;;;;;;;0.75;100.00;101134.75;10297404;28;20390;-70
2023/12/04 00:13:08;;;;;;;0.70;0.70;;;;;;;0.78;100.00;101133.66;10298110;28;20039;-72
2023/12/04 00:18:08;;;;;;;2.08;2.03;;;;;;;0.73;100.00;101123.38;10298266;28;20035;-72
2023/12/04 00:23:09;;;;;;;1.10;1.08;;;;;;;0.75;100.00;101116.09;10297100;28;20407;-71
2023/12/04 00:28:09;;;;;;;0.70;0.70;;;;;;;0.79;100.00;101111.34;10297733;28;20038;-72
2023/12/04 00:33:09;;;;;;;1.00;1.00;;;;;;;0.73;100.00;101115.38;10297153;28;20039;-72
2023/12/04 00:38:10;;;;;;;2.28;2.22;;;;;;;0.77;100.00;101111.50;10297288;28;20149;-71
2023/12/04 00:43:10;;;;;;;1.88;1.88;;;;;;;0.75;100.00;101091.25;10295507;28;20409;-70
2023/12/04 00:48:11;;;;;;;1.10;1.10;;;;;;;0.71;100.00;101098.69;10295577;28;20110;-73
2023/12/04 00:53:11;;;;;;;1.60;1.58;;;;;;;0.74;100.00;101097.59;10295414;28;20122;-72
2023/12/04 00:58:12;;;;;;;1.08;1.08;;;;;;;0.75;100.00;101073.44;10294934;28;20035;-73
2023/12/04 01:03:13;;;;;;;0.80;0.80;;;;;;;0.75;100.00;101068.13;10279827;28;20359;-71
2023/12/04 01:08:13;;;;;;;2.13;1.98;;;;;;;0.77;100.00;101068.00;10294175;28;20030;-70
2023/12/04 01:13:13;;;;;;;1.38;1.38;;;;;;;0.77;100.00;101054.66;10294669;28;20097;-72
2023/12/04 01:18:14;;;;;;;2.55;2.45;;;;;;;0.68;100.00;101046.47;10279125;28;20031;-73
2023/12/04 01:23:14;;;;;;;0.60;0.60;;;;;;;0.71;100.00;101047.19;10293473;28;20419;-72
2023/12/04 01:28:15;;;;;;;2.20;2.17;;;;;;;0.71;100.00;101036.53;10295052;28;20039;-73
2023/12/04 01:33:15;;;;;;;0.60;0.60;;;;;;;0.77;100.00;101039.53;10294746;28;20455;-71
2023/12/04 01:38:16;;;;;;;1.20;1.20;;;;;;;0.84;100.00;101023.84;10294313;28;20089;-73
2023/12/04 01:43:18;;;;;;;1.00;1.00;;;;;;;0.88;100.00;101028.78;10293864;28;20180;-73
2023/12/04 01:48:18;;;;;;;0.70;0.70;;;;;;;0.93;100.00;101023.91;10293761;28;20038;-72
2023/12/04 01:53:18;;;;;;;2.78;2.67;;;;;;;0.95;100.00;101026.41;10292723;28;20027;-73
2023/12/04 01:58:19;;;;;;;1.00;1.00;;;;;;;0.99;100.00;101011.88;10292977;28;20400;-74
2023/12/04 02:03:19;;;;;;;2.20;2.15;;;;;;;0.92;100.00;100998.19;10292869;28;20130;-73
2023/12/04 02:08:20;;;;;;;0.90;0.90;;;;;;;0.95;100.00;101004.25;10294197;28;20058;-72
2023/12/04 02:13:20;;;;;;;0.88;0.88;;;;;;;0.91;100.00;100993.84;10293402;28;20050;-71
2023/12/04 02:18:22;;;;;;;0.80;0.80;;;;;;;0.89;100.00;100986.94;10293402;28;20157;-72
2023/12/04 02:23:22;;;;;;;0.50;0.50;;;;;;;0.99;100.00;100982.53;10293012;28;20097;-71
2023/12/04 02:28:23;;;;;;;2.03;2.03;;;;;;;0.99;100.00;100977.19;10293098;28;20470;-72
2023/12/04 02:33:23;;;;;;;1.83;1.75;;;;;;;1.05;100.00;100976.63;10274195;28;20065;-73
2023/12/04 02:38:23;;;;;;;1.23;1.23;;;;;;;1.03;100.00;100965.28;10259537;28;20412;-73
2023/12/04 02:43:24;;;;;;;1.65;1.65;;;;;;;1.07;100.00;100960.53;10292101;28;20066;-72
2023/12/04 02:48:24;;;;;;;0.90;0.90;;;;;;;1.05;100.00;100952.63;10291323;28;20039;-72
2023/12/04 02:53:25;;;;;;;0.80;0.80;;;;;;;1.04;100.00;100944.78;10291651;28;20241;-73
2023/12/04 02:58:25;;;;;;;0.93;0.93;;;;;;;1.07;100.00;100936.53;10291603;28;20038;-72
2023/12/04 03:03:25;;;;;;;0.95;0.95;;;;;;;1.08;100.00;100930.19;10292803;28;20038;-72
2023/12/04 03:08:26;;;;;;;0.80;0.80;;;;;;;1.06;100.00;100921.50;10290677;28;20038;-72
2023/12/04 03:13:26;;;;;;;4.82;4.40;;;;;;;1.11;100.00;100909.44;10292558;28;20046;-71
2023/12/04 03:18:28;;;;;;;1.65;1.65;;;;;;;1.14;100.00;100908.31;10292732;28;20068;-72
2023/12/04 03:23:29;;;;;;;15.80;4.97;;;;;;;1.18;100.00;100893.72;10290599;28;20079;-72
2023/12/04 03:28:29;;;;;;;1.05;1.05;;;;;;;1.16;100.00;100882.38;10290563;28;20039;-72
2023/12/04 03:33:29;;;;;;;0.80;0.80;;;;;;;1.20;100.00;100881.09;10290573;28;20046;-73
2023/12/04 03:38:30;;;;;;;0.70;0.70;;;;;;;1.22;100.00;100862.31;10290344;28;20074;-74
2023/12/04 03:43:30;;;;;;;2.75;2.65;;;;;;;1.23;100.00;100870.16;10293439;28;20078;-72
2023/12/04 03:48:31;;;;;;;0.50;0.50;;;;;;;1.21;100.00;100858.78;10337197;28;20027;-72
2023/12/04 03:53:31;;;;;;;0.88;0.88;;;;;;;1.32;100.00;100853.34;10306094;28;20082;-73
2023/12/04 03:58:32;;;;;;;0.70;0.70;;;;;;;1.36;100.00;100843.22;10314080;28;20387;-73
2023/12/04 04:03:32;;;;;;;0.80;0.80;;;;;;;1.44;100.00;100830.03;10297883;28;20067;-72
2023/12/04 04:08:32;;;;;;;7.68;2.58;;;;;;;1.47;100.00;100821.75;10297390;28;20038;-73
2023/12/04 04:13:33;;;;;;;0.90;0.90;;;;;;;1.48;100.00;100826.09;10301384;28;20043;-73
2023/12/04 04:18:33;;;;;;;0.90;0.90;;;;;;;1.60;100.00;100819.63;10298144;28;20109;-73
2023/12/04 04:23:34;;;;;;;2.35;2.25;;;;;;;1.70;100.00;100816.13;10298792;28;20047;-74
2023/12/04 04:28:34;;;;;;;0.90;0.90;;;;;;;1.75;100.00;100812.00;10295869;28;20126;-72
2023/12/04 04:33:35;;;;;;;0.60;0.60;;;;;;;1.74;100.00;100813.00;10296749;28;20035;-73
2023/12/04 04:38:35;;;;;;;1.58;1.50;;;;;;;1.81;100.00;100813.28;10297948;28;20142;-73
2023/12/04 04:43:35;;;;;;;0.50;0.50;;;;;;;1.84;100.00;100805.81;10297421;28;20039;-72
2023/12/04 04:48:36;;;;;;;1.00;1.00;;;;;;;1.85;100.00;100794.19;10280856;28;20073;-73
2023/12/04 04:53:36;;;;;;;0.75;0.75;;;;;;;1.88;100.00;100785.00;10296764;28;20097;-73
2023/12/04 04:58:37;;;;;;;0.77;0.77;;;;;;;1.89;100.00;100765.34;10297080;28;20043;-73
2023/12/04 05:03:37;;;;;;;0.70;0.70;;;;;;;1.86;100.00;100768.31;10294794;28;20039;-73
2023/12/04 05:08:37;;;;;;;0.95;0.95;;;;;;;1.91;100.00;100758.03;10297065;28;20054;-73
2023/12/04 05:13:38;;;;;;;0.70;0.70;;;;;;;1.95;100.00;100759.44;10295573;28;20451;-73
2023/12/04 05:18:38;;;;;;;0.80;0.80;;;;;;;2.01;100.00;100745.50;10296304;28;20039;-73
2023/12/04 05:23:39;;;;;;;0.80;0.80;;;;;;;1.98;100.00;100737.78;10294908;28;20391;-72
2023/12/04 05:28:39;;;;;;;0.70;0.70;;;;;;;2.06;100.00;100735.22;10296297;28;20089;-72
2023/12/04 05:33:40;;;;;;;2.70;2.60;;;;;;;2.13;100.00;100734.63;10295194;28;20113;-72
2023/12/04 05:38:40;;;;;;;0.63;0.63;;;;;;;2.17;100.00;100731.53;10293191;28;20117;-73
2023/12/04 05:43:41;;;;;;;0.60;0.60;;;;;;;2.17;100.00;100752.03;10295096;28;20097;-73
2023/12/04 05:48:41;;;;;;;0.73;0.73;;;;;;;2.17;100.00;100744.03;10294411;28;20042;-71
2023/12/04 05:53:41;;;;;;;1.35;1.35;;;;;;;2.22;100.00;100737.25;10294130;28;20034;-73
2023/12/04 05:58:42;;;;;;;0.75;0.75;;;;;;;2.23;100.00;100730.06;10296792;28;20031;-72
2023/12/04 06:03:42;;;;;;;1.30;1.30;;;;;;;2.23;100.00;100732.75;10292773;28;20031;-72
2023/12/04 06:08:43;;;;;;;9.40;2.97;;;;;;;2.20;100.00;100725.03;10293829;28;20090;-72
2023/12/04 06:13:43;;;;;;;0.80;0.80;;;;;;;2.16;100.00;100708.47;10271201;28;20082;-72
2023/12/04 06:18:43;;;;;;;0.70;0.70;;;;;;;2.10;100.00;100696.53;10333114;28;20529;-71
2023/12/04 06:23:44;;;;;;;0.60;0.60;;;;;;;1.99;100.00;100694.06;10332793;28;20042;-73
2023/12/04 06:28:45;;;;;;;0.60;0.60;;;;;;;1.95;100.00;100690.00;10331982;28;20035;-73
2023/12/04 06:33:46;;;;;;;1.05;1.05;;;;;;;1.95;100.00;100684.66;10333414;28;20061;-73
2023/12/04 06:38:46;;;;;;;0.70;0.70;;;;;;;1.94;100.00;100668.78;10331393;28;20450;-73
2023/12/04 06:43:47;;;;;;;0.63;0.63;;;;;;;2.00;100.00;100665.53;10331091;28;20367;-73
2023/12/04 06:48:48;;;;;;;1.17;1.17;;;;;;;2.06;100.00;100670.28;10332503;28;20038;-73
2023/12/04 06:53:48;;;;;;;0.70;0.70;;;;;;;2.07;100.00;100667.47;10331010;28;20472;-72
2023/12/04 06:58:49;;;;;;;0.77;0.77;;;;;;;2.05;100.00;100663.25;10331934;28;20128;-71
2023/12/04 07:03:49;;;;;;;1.42;1.42;;;;;;;2.09;100.00;100668.16;10331743;28;20066;-73
2023/12/04 07:08:50;;;;;;;1.70;1.70;;;;;;;2.07;100.00;100654.13;10330965;28;20026;-72
2023/12/04 07:13:51;;;;;;;0.80;0.80;;;;;;;2.06;100.00;100643.56;10334779;28;20092;-72
2023/12/04 07:18:51;;;;;;;1.35;1.35;;;;;;;2.11;100.00;100635.97;10335580;28;20065;-72
2023/12/04 07:23:52;;;;;;;1.42;1.42;;;;;;;2.16;100.00;100646.19;10339288;28;20045;-74
2023/12/04 07:28:52;;;;;;;1.13;1.13;;;;;;;2.26;100.00;100636.28;10339624;28;20112;-71
2023/12/04 07:33:53;;;;;;;0.95;0.95;;;;;;;2.20;100.00;100628.84;10338153;28;20042;-72
2023/12/04 07:38:54;;;;;;;1.08;1.08;;;;;;;2.25;100.00;100637.28;10354510;28;20085;-72
2023/12/04 07:43:54;;;;;;;0.70;0.70;;;;;;;2.29;100.00;100635.97;10339078;28;20042;-74
2023/12/04 07:48:55;;;;;;;1.02;1.02;;;;;;;2.36;100.00;100629.03;10338916;28;20039;-73
2023/12/04 07:53:55;;;;;;;0.55;0.55;;;;;;;2.46;100.00;100637.84;10339664;28;20125;-73
2023/12/04 07:58:56;;;;;;;0.70;0.70;;;;;;;2.46;100.00;100647.69;10338508;28;20110;-72
2023/12/04 08:03:56;;;;;;;0.50;0.50;;;;;;;2.49;100.00;100647.38;10338438;28;20338;-72
2023/12/04 08:08:57;;;;;;;0.47;0.47;;;;;;;2.50;100.00;100635.72;10338378;28;20080;-72
2023/12/04 08:13:57;;;;;;;0.77;0.77;;;;;;;2.43;100.00;100626.63;10337557;28;20030;-73
2023/12/04 08:18:58;;;;;;;9.45;7.18;;;;;;;2.47;100.00;100625.31;10339069;28;20346;-73
2023/12/04 08:23:58;;;;;;;7.75;5.60;;;;;;;2.47;100.00;100614.63;10338432;28;20120;-73
2023/12/04 08:28:58;;;;;;;8.60;5.60;;;;;;;2.49;100.00;100636.69;10336572;28;20030;-73
2023/12/04 08:33:59;;;;;;;6.50;5.93;;;;;;;2.52;100.00;100618.53;10336364;28;20073;-73
2023/12/04 08:38:59;;;;;;;9.77;7.50;;;;;;;2.58;100.00;100602.84;10337118;28;20093;-74
2023/12/04 08:44:00;;;;;;;7.60;6.68;;;;;;;2.59;100.00;100604.56;10337798;28;20043;-72
2023/12/04 08:49:01;;;;;;;9.18;7.55;;;;;;;2.55;100.00;100585.28;10319073;28;20084;-72
2023/12/04 08:54:01;;;;;;;10.40;7.70;;;;;;;2.60;100.00;100582.16;10335300;28;20077;-73
2023/12/04 08:59:01;;;;;;;11.75;7.13;;;;;;;2.62;100.00;100564.16;10319016;28;20390;-71
2023/12/04 09:04:02;;;;;;;6.82;6.15;;;;;;;2.65;100.00;100575.38;10318591;28;20049;-72
2023/12/04 09:09:02;;;;;;;5.90;4.82;;;;;;;2.63;100.00;100587.22;10336971;28;20110;-73
2023/12/04 09:14:03;;;;;;;7.57;5.68;;;;;;;2.70;100.00;100577.56;10335181;28;20050;-72
2023/12/04 09:19:03;;;;;;;6.68;5.30;;;;;;;2.67;100.00;100577.88;10336473;28;20034;-73
2023/12/04 09:24:07;;;;;;;12.13;8.60;;;;;;;2.78;100.00;100583.84;10335689;28;20379;-71
2023/12/04 09:29:08;;;;;;;8.20;6.03;;;;;;;2.72;100.00;100570.25;10359303;28;20030;-73
2023/12/04 09:34:09;;;;;;;8.20;6.53;;;;;;;2.73;100.00;100572.75;10365625;28;20030;-73
2023/12/04 09:39:10;;;;;;;13.32;7.45;;;;;;;2.74;100.00;100573.59;10343661;28;20066;-73
2023/12/04 09:44:10;;;;;;;9.02;6.88;;;;;;;2.74;100.00;100562.88;10339212;28;20080;-71
2023/12/04 09:49:11;;;;;;;11.68;6.30;;;;;;;2.78;100.00;100558.94;10320464;28;20023;-71
2023/12/04 09:54:11;;;;;;;7.30;6.15;;;;;;;2.77;100.00;100546.53;10337226;28;20107;-71
2023/12/04 09:59:13;;;;;;;5.85;4.97;;;;;;;2.80;100.00;100541.72;10336175;28;20157;-72
2023/12/04 10:04:13;;;;;;;6.63;5.97;;;;;;;2.78;100.00;100542.91;10332976;28;20073;-70
2023/12/04 10:09:13;;;;;;;7.97;5.53;;;;;;;2.84;100.00;100514.66;10335296;28;20117;-73
2023/12/04 10:14:20;;;;;;;8.57;6.40;;;;;;;2.86;100.00;100502.00;10334568;28;20088;-73
2023/12/04 10:19:31;;;;;;;7.78;6.97;;;;;;;3.02;100.00;100516.28;10316678;28;20443;-72
2023/12/04 10:24:33;;;;;;;6.25;5.65;;;;;;;3.10;100.00;100510.16;10332315;28;20375;-71
2023/12/04 10:29:47;;;;;;;5.20;4.80;;;;;;;3.44;100.00;100502.13;10333011;28;20042;-74
2023/12/04 10:34:48;;;;;;;8.70;6.72;;;;;;;3.71;100.00;100479.63;10332994;28;20110;-72
2023/12/04 10:39:49;;;;;;;6.80;5.30;;;;;;;3.79;100.00;100473.44;10332030;28;20050;-71
2023/12/04 10:44:51;;;;;;;10.07;6.68;;;;;;;3.86;100.00;100482.53;10332227;28;20046;-71
2023/12/04 10:49:52;;;;;;;5.75;5.03;;;;;;;4.03;100.00;100477.19;10331506;28;20117;-73
2023/12/04 10:54:52;;;;;;;6.22;5.57;;;;;;;4.08;100.00;100451.56;10331980;28;20038;-73
2023/12/04 11:00:03;;;;;;;6.35;5.72;;;;;;;4.03;100.00;100447.72;10331035;28;20308;-72
2023/12/04 11:05:13;;;;;;;5.07;4.53;;;;;;;3.84;100.00;100447.03;10330474;28;20384;-72
2023/12/04 11:10:13;;;;;;;6.53;5.13;;;;;;;3.76;100.00;100451.53;10333393;28;20113;-70
2023/12/04 11:15:14;;;;;;;14.27;5.43;;;;;;;3.67;100.00;100434.59;10331789;28;20043;-72
2023/12/04 11:20:17;;;;;;;8.65;4.93;;;;;;;3.66;100.00;100432.91;10330632;28;20051;-71
2023/12/04 11:25:18;;;;;;;13.70;5.85;;;;;;;3.50;100.00;100426.53;10331680;28;20128;-72
2023/12/04 11:30:18;;;;;;;7.88;6.18;;;;;;;3.42;100.00;100423.84;10330577;28;20430;-71
2023/12/04 11:35:20;;;;;;;6.78;4.40;;;;;;;3.30;100.00;100414.44;10329883;28;20121;-71
2023/12/04 11:40:20;;;;;;;6.15;5.18;;;;;;;3.23;100.00;100416.09;10313989;28;20050;-71
2023/12/04 11:45:21;;;;;;;8.82;6.97;;;;;;;3.14;100.00;100406.34;10334166;28;20066;-73
2023/12/04 11:50:21;;;;;;;6.63;6.13;;;;;;;3.03;100.00;100397.63;10331122;28;20066;-71
2023/12/04 11:55:22;;;;;;;8.73;4.53;;;;;;;2.87;100.00;100391.34;10314874;28;20042;-74
2023/12/04 12:00:24;;;;;;;9.23;5.03;;;;;;;2.85;100.00;100378.16;10331585;28;20030;-71
2023/12/04 12:05:26;;;;;;;7.22;5.40;;;;;;;2.84;100.00;100344.38;10333142;28;20045;-72
2023/12/04 12:10:27;;;;;;;7.70;6.55;;;;;;;2.95;100.00;100353.94;10338531;28;20066;-72
2023/12/04 12:15:27;;;;;;;5.43;4.90;;;;;;;3.06;100.00;100350.13;10337803;28;20053;-72
2023/12/04 12:20:28;;;;;;;4.22;3.83;;;;;;;3.06;100.00;100342.94;10337278;28;20493;-73
2023/12/04 12:25:28;;;;;;;9.20;5.18;;;;;;;2.91;100.00;100324.03;10337012;28;20042;-73
2023/12/04 12:30:28;;;;;;;7.35;4.65;;;;;;;2.88;100.00;100313.66;10337652;28;20160;-73
2023/12/04 12:35:30;;;;;;;9.82;6.57;;;;;;;3.06;100.00;100305.47;10336761;28;20490;-73
2023/12/04 12:40:30;;;;;;;8.32;6.30;;;;;;;3.23;100.00;100309.06;10336873;28;20093;-72
2023/12/04 12:45:38;;;;;;;5.13;4.63;;;;;;;3.29;100.00;100307.53;10337200;28;20477;-74
2023/12/04 12:50:39;;;;;;;12.10;6.93;;;;;;;3.31;100.00;100303.69;10336965;28;20033;-72
2023/12/04 12:55:42;;;;;;;6.30;5.70;;;;;;;3.32;100.00;100299.19;10334862;28;20089;-73
2023/12/04 13:00:43;;;;;;;8.90;5.75;;;;;;;3.33;100.00;100298.19;10336355;28;20038;-74
2023/12/04 13:05:43;;;;;;;4.88;4.30;;;;;;;3.10;100.00;100289.97;10318736;28;20054;-72
2023/12/04 13:10:44;;;;;;;4.22;3.85;;;;;;;2.99;100.00;100269.69;10318525;28;20045;-74
2023/12/04 13:15:44;;;;;;;10.88;6.35;;;;;;;2.88;100.00;100270.84;10334495;28;20038;-72
2023/12/04 13:20:45;;;;;;;8.45;5.22;;;;;;;2.82;100.00;100263.47;10334479;28;20050;-72
2023/12/04 13:25:45;;;;;;;12.30;7.10;;;;;;;2.77;100.00;100263.97;10336455;28;20070;-72
2023/12/04 13:30:45;;;;;;;12.85;6.65;;;;;;;2.68;100.00;100256.06;10335428;28;20342;-72
2023/12/04 13:35:46;;;;;;;10.80;6.65;;;;;;;2.80;100.00;100250.25;10335127;28;20121;-72
2023/12/04 13:40:59;;;;;;;6.13;5.38;;;;;;;2.75;100.00;100249.09;10335079;28;20104;-73
2023/12/04 13:45:59;;;;;;;6.35;5.85;;;;;;;2.73;100.00;100224.34;10335456;28;20073;-73
2023/12/04 13:51:01;;;;;;;6.35;5.75;;;;;;;2.71;100.00;100227.22;10332195;28;20410;-74
2023/12/04 14:01:12;;;;;;;8.95;6.18;;;;;;;2.66;100.00;100221.50;10333422;28;20146;-72
2023/12/04 14:06:12;;;;;;;7.60;6.50;;;;;;;2.53;100.00;100208.59;10332330;28;20367;-72
2023/12/04 14:11:14;;;;;;;11.30;9.18;;;;;;;2.38;100.00;100215.56;10333388;28;20031;-71
2023/12/04 14:16:15;;;;;;;11.35;7.85;;;;;;;2.35;100.00;100207.88;10333799;28;20063;-71
2023/12/04 14:21:16;;;;;;;6.85;6.13;;;;;;;2.25;100.00;100191.13;10331584;28;20340;-72
2023/12/04 14:26:17;;;;;;;11.75;8.10;;;;;;;2.19;100.00;100210.47;10332094;28;20042;-73
2023/12/04 14:31:18;;;;;;;10.18;9.00;;;;;;;2.05;100.00;100191.38;10331813;28;20125;-72
2023/12/04 14:36:18;;;;;;;11.70;9.50;;;;;;;2.06;100.00;100184.22;10333527;28;20045;-72
2023/12/04 14:41:18;;;;;;;12.25;8.68;;;;;;;2.00;100.00;100184.84;10333848;28;20055;-72
2023/12/04 14:46:19;;;;;;;10.43;9.32;;;;;;;1.93;100.00;100173.97;10332675;28;20061;-72
2023/12/04 14:51:19;;;;;;;8.52;7.65;;;;;;;1.85;100.00;100174.78;10335340;28;20071;-71
2023/12/04 15:17:44;;;;;;;12.80;11.43;;;;;;;1.55;100.00;100160.06;10322400;28;20046;-70
2023/12/04 15:22:45;;;;;;;12.45;11.23;;;;;;;1.48;100.00;100143.03;10316193;28;20042;-70
2023/12/04 15:27:46;;;;;;;12.68;10.65;;;;;;;1.51;100.00;100148.06;10330289;28;20105;-70
2023/12/04 15:32:46;;;;;;;15.48;10.52;;;;;;;1.53;100.00;100139.88;10331941;28;20360;-69
2023/12/04 15:37:47;;;;;;;12.57;10.00;;;;;;;1.50;100.00;100130.38;10330671;28;20062;-73
2023/12/04 15:42:47;;;;;;;19.05;14.02;;;;;;;1.49;100.00;100131.34;10336638;28;20053;-72
2023/12/04 15:47:48;;;;;;;18.38;14.73;;;;;;;1.53;100.00;100123.88;10338775;28;20079;-70
2023/12/04 15:52:49;;;;;;;13.57;11.25;;;;;;;1.57;100.00;100119.91;10338364;28;20414;-71
2023/12/04 15:57:54;;;;;;;10.45;9.43;;;;;;;1.61;100.00;100115.91;10338202;28;20069;-70
2023/12/04 16:02:55;;;;;;;14.57;13.00;;;;;;;1.63;100.00;100105.94;10338744;28;20162;-71
2023/12/04 16:07:56;;;;;;;15.82;11.48;;;;;;;1.65;100.00;100103.09;10337259;28;20463;-71
2023/12/04 16:12:57;;;;;;;19.33;11.98;;;;;;;1.72;100.00;100104.13;10340170;28;20041;-70
2023/12/04 16:17:57;;;;;;;0.80;0.80;;;;;;;1.56;100.00;100102.19;10370610;28;20042;-72
2023/12/04 16:22:58;;;;;;;0.80;0.80;;;;;;;1.54;100.00;100094.38;10358187;28;20045;-71
2023/12/04 16:27:58;;;;;;;3.67;3.55;;;;;;;1.53;100.00;100105.19;10340664;28;20038;-72
2023/12/04 16:32:58;;;;;;;1.00;1.00;;;;;;;1.53;100.00;100095.38;10339322;28;20062;-71
2023/12/04 16:37:59;;;;;;;2.05;1.95;;;;;;;1.54;100.00;100096.22;10338335;28;20100;-70
2023/12/04 16:43:00;;;;;;;0.80;0.80;;;;;;;1.50;100.00;100087.69;10338490;28;20045;-72
2023/12/04 16:48:00;;;;;;;0.80;0.80;;;;;;;1.48;100.00;100089.66;10337012;28;20116;-73
2023/12/04 16:53:00;;;;;;;0.80;0.80;;;;;;;1.53;100.00;100071.38;10336772;28;20089;-72
2023/12/04 16:58:03;;;;;;;0.70;0.70;;;;;;;1.50;100.00;100069.00;10338210;28;20082;-72
2023/12/04 17:03:03;;;;;;;0.63;0.63;;;;;;;1.53;100.00;100067.84;10336503;28;20359;-72
2023/12/04 17:08:04;;;;;;;1.27;1.27;;;;;;;1.52;100.00;100069.66;10336272;28;20037;-74
2023/12/04 17:13:05;;;;;;;3.20;3.10;;;;;;;1.50;100.00;100055.66;10336149;28;20489;-70
2023/12/04 17:18:08;;;;;;;1.00;1.00;;;;;;;1.50;100.00;100060.16;10336604;28;20132;-71
2023/12/04 17:23:08;;;;;;;2.55;2.35;;;;;;;1.48;100.00;100054.97;10335186;28;20045;-72
2023/12/04 17:28:09;;;;;;;1.73;1.73;;;;;;;1.51;100.00;100051.16;10335647;28;20049;-71
2023/12/04 17:33:09;;;;;;;0.75;0.75;;;;;;;1.42;100.00;100041.44;10335684;28;20027;-70
2023/12/04 17:38:10;;;;;;;0.73;0.73;;;;;;;1.44;100.00;100056.31;10334236;28;20058;-71
2023/12/04 17:43:11;;;;;;;1.20;1.20;;;;;;;1.35;100.00;100063.41;10334380;28;20038;-71
2023/12/04 17:48:13;;;;;;;0.63;0.63;;;;;;;1.38;100.00;100057.78;10334456;28;20042;-71
2023/12/04 17:53:14;;;;;;;1.00;1.00;;;;;;;1.41;100.00;100039.78;10335000;28;20034;-70
2023/12/04 17:58:14;;;;;;;1.02;1.02;;;;;;;1.38;100.00;100036.44;10336041;28;20057;-69
2023/12/04 18:03:15;;;;;;;1.30;1.30;;;;;;;1.32;100.00;100037.06;10334226;28;20109;-71
2023/12/04 18:08:16;;;;;;;0.95;0.95;;;;;;;1.33;100.00;100025.38;10334319;28;20030;-71
2023/12/04 18:13:16;;;;;;;2.17;2.13;;;;;;;1.37;100.00;100025.91;10333453;28;20034;-70
2023/12/04 18:18:17;;;;;;;2.80;2.70;;;;;;;1.35;100.00;100028.75;10333131;28;20085;-71
2023/12/04 18:23:17;;;;;;;2.72;1.85;;;;;;;1.35;100.00;100026.06;10334924;28;20061;-72
2023/12/04 18:28:18;;;;;;;4.43;4.22;;;;;;;1.36;100.00;100021.56;10333750;28;20405;-74
2023/12/04 18:33:19;;;;;;;0.60;0.60;;;;;;;1.35;100.00;100009.25;10333149;28;20034;-71
2023/12/04 18:38:24;;;;;;;2.45;2.35;;;;;;;1.31;100.00;100013.22;10315528;28;20056;-72
2023/12/04 18:43:25;;;;;;;0.95;0.95;;;;;;;1.26;100.00;100007.53;10316292;28;20120;-73
2023/12/04 18:48:25;;;;;;;0.80;0.80;;;;;;;1.26;100.00;100005.69;10332914;28;20042;-73
2023/12/04 18:53:26;;;;;;;0.65;0.65;;;;;;;1.25;100.00;100003.19;10332844;28;20053;-73
2023/12/04 18:58:27;;;;;;;6.00;3.88;;;;;;;1.27;100.00;99999.34;10332726;28;20038;-72
2023/12/04 19:03:28;;;;;;;2.53;2.42;;;;;;;1.26;100.00;99999.53;10333594;28;20050;-73
2023/12/04 19:08:28;;;;;;;1.25;1.25;;;;;;;1.26;100.00;99991.53;10332709;28;20042;-71
2023/12/04 19:13:29;;;;;;;3.10;3.00;;;;;;;1.28;100.00;99992.22;10332796;28;20066;-71
2023/12/04 19:18:29;;;;;;;1.80;1.80;;;;;;;1.36;100.00;99992.22;10341007;28;20038;-71
2023/12/04 19:23:30;;;;;;;1.90;1.80;;;;;;;1.40;100.00;99990.91;10344651;28;20489;-73
2023/12/04 19:28:31;;;;;;;2.65;2.45;;;;;;;1.34;100.00;99989.75;10339365;28;20068;-72
2023/12/04 19:33:31;;;;;;;2.72;2.63;;;;;;;1.33;100.00;99987.22;10340649;28;20114;-71
2023/12/04 19:38:32;;;;;;;1.48;1.48;;;;;;;1.36;100.00;99976.22;10340333;28;20654;-72
2023/12/04 19:43:33;;;;;;;2.30;2.25;;;;;;;1.38;100.00;99982.25;10340742;28;20054;-72
2023/12/04 19:48:34;;;;;;;0.80;0.80;;;;;;;1.38;100.00;99977.75;10339469;28;20130;-73
2023/12/04 19:53:34;;;;;;;1.40;1.40;;;;;;;1.30;100.00;99963.53;10339963;28;20424;-73
2023/12/04 19:58:35;;;;;;;0.80;0.80;;;;;;;1.29;100.00;99959.19;10340001;28;20096;-74
2023/12/04 20:03:35;;;;;;;2.28;2.17;;;;;;;1.29;100.00;99961.88;10339421;28;20104;-75
2023/12/04 20:08:35;;;;;;;0.90;0.90;;;;;;;1.22;100.00;99955.50;10338275;28;20038;-74
2023/12/04 20:13:36;;;;;;;0.73;0.73;;;;;;;1.23;100.00;99954.50;10337351;28;20058;-73
2023/12/04 20:18:36;;;;;;;1.10;1.10;;;;;;;1.24;100.00;99950.84;10338863;28;20065;-74
2023/12/04 20:23:37;;;;;;;3.15;3.05;;;;;;;1.29;100.00;99952.03;10321763;28;20030;-73
2023/12/04 20:28:37;;;;;;;1.35;1.35;;;;;;;1.30;100.00;99936.88;10319332;28;20394;-73
2023/12/04 20:33:38;;;;;;;3.15;3.05;;;;;;;1.28;100.00;99953.03;10338588;28;20038;-74
2023/12/04 20:38:39;;;;;;;8.38;7.35;;;;;;;1.28;100.00;99941.53;10343404;28;20046;-78
2023/12/04 20:43:39;;;;;;;1.67;1.67;;;;;;;1.27;100.00;99945.19;10338527;28;20085;-73
2023/12/04 20:48:40;;;;;;;0.77;0.77;;;;;;;1.30;100.00;99937.69;10338029;28;20072;-72
2023/12/04 20:53:41;;;;;;;1.58;1.58;;;;;;;1.34;100.00;99935.53;10337886;28;20382;-73
2023/12/04 20:58:41;;;;;;;4.82;2.42;;;;;;;1.32;100.00;99940.22;10337814;28;20042;-73
2023/12/04 21:03:42;;;;;;;1.70;1.70;;;;;;;1.36;100.00;99939.72;10336595;28;20102;-72
2023/12/04 21:08:42;;;;;;;1.13;1.13;;;;;;;1.31;100.00;99934.06;10335332;28;20074;-73
2023/12/04 21:13:42;;;;;;;1.38;1.38;;;;;;;1.40;100.00;99937.56;10336207;28;20414;-73
2023/12/04 21:18:44;;;;;;;0.85;0.85;;;;;;;1.40;100.00;99937.56;10335945;28;20066;-72
2023/12/04 21:23:45;;;;;;;0.80;0.80;;;;;;;1.40;100.00;99945.56;10338628;28;20034;-73
2023/12/04 21:28:46;;;;;;;0.90;0.90;;;;;;;1.44;100.00;99943.44;10338804;28;20090;-73
2023/12/04 21:33:46;;;;;;;3.03;2.95;;;;;;;1.47;100.00;99945.75;10374004;28;20042;-71
2023/12/04 21:38:47;;;;;;;0.80;0.80;;;;;;;1.47;100.00;99945.75;10351258;28;20038;-74
2023/12/04 21:43:47;;;;;;;0.88;0.88;;;;;;;1.49;100.00;99936.59;10339890;28;20058;-73
2023/12/04 21:48:47;;;;;;;2.38;2.33;;;;;;;1.46;100.00;99918.22;10336959;28;20113;-73
2023/12/04 21:53:48;;;;;;;2.10;2.05;;;;;;;1.49;100.00;99920.56;10334990;28;20081;-72
2023/12/04 21:58:48;;;;;;;1.10;1.10;;;;;;;1.55;100.00;99924.44;10336417;28;20117;-72
2023/12/04 22:03:49;;;;;;;3.28;3.15;;;;;;;1.58;100.00;99916.94;10333597;28;20134;-72
2023/12/04 22:08:49;;;;;;;0.75;0.75;;;;;;;1.58;100.00;99908.09;10334948;28;20183;-74
2023/12/04 22:13:49;;;;;;;1.00;1.00;;;;;;;1.62;100.00;99914.78;10332586;28;20431;-74
2023/12/04 22:18:50;;;;;;;0.60;0.60;;;;;;;1.62;100.00;99901.44;10333450;28;20034;-73
2023/12/04 22:23:50;;;;;;;0.90;0.90;;;;;;;1.67;100.00;99908.97;10333630;28;20467;-73
2023/12/04 22:28:52;;;;;;;1.35;1.35;;;;;;;1.70;100.00;99905.97;10333233;28;20038;-73
2023/12/04 22:33:52;;;;;;;0.70;0.70;;;;;;;1.72;100.00;99903.94;10333414;28;20038;-74
2023/12/04 22:38:52;;;;;;;0.77;0.77;;;;;;;1.68;100.00;99889.28;10332786;28;20069;-75
2023/12/04 22:43:55;;;;;;;0.70;0.70;;;;;;;1.73;100.00;99902.97;10331202;28;20073;-72
2023/12/04 22:48:55;;;;;;;1.65;1.65;;;;;;;1.74;100.00;99904.63;10335623;28;20045;-74
2023/12/04 22:53:56;;;;;;;1.05;1.05;;;;;;;1.74;100.00;99904.63;10341841;28;20042;-73
2023/12/04 22:58:56;;;;;;;3.03;2.45;;;;;;;1.75;100.00;99893.78;10333340;28;20101;-74
2023/12/04 23:03:57;;;;;;;0.88;0.88;;;;;;;1.80;100.00;99902.13;10332966;28;20599;-74
2023/12/04 23:08:57;;;;;;;1.27;1.27;;;;;;;1.82;100.00;99907.31;10332974;28;20065;-74
2023/12/04 23:13:58;;;;;;;2.00;1.92;;;;;;;1.85;100.00;99910.50;10332603;28;20030;-74
2023/12/04 23:18:59;;;;;;;0.88;0.88;;;;;;;1.86;100.00;99903.31;10332285;28;20057;-74
2023/12/04 23:23:59;;;;;;;1.58;1.55;;;;;;;1.95;100.00;99901.50;10348759;28;20042;-74
2023/12/04 23:29:00;;;;;;;0.82;0.82;;;;;;;1.99;100.00;99898.31;10332236;28;20149;-74